createdAt,value
2023-03-20T04:47:05.285Z,745.17
2023-03-20T04:49:31.933Z,739.60
2023-03-20T04:51:58.649Z,739.63
2023-03-20T04:54:25.673Z,745.55
2023-03-20T04:56:52.313Z,741.53
2023-03-20T04:59:20.371Z,737.88
2023-03-20T05:01:47.029Z,731.22
2023-03-20T05:04:13.864Z,737.38
2023-03-20T05:06:40.832Z,733.35
2023-03-20T05:09:07.490Z,741.83
2023-03-20T05:11:34.140Z,733.40
2023-03-20T05:14:00.711Z,727.85
2023-03-20T05:16:27.380Z,732.78
2023-03-20T05:18:54.078Z,740.95
2023-03-20T05:21:20.666Z,736.90
2023-03-20T05:23:47.325Z,729.00
2023-03-20T05:26:13.952Z,740.00
2023-03-20T05:28:40.683Z,740.13
2023-03-20T05:31:07.904Z,729.80
2023-03-20T05:33:36.870Z,740.00
2023-03-20T05:36:06.029Z,739.53
2023-03-20T05:38:32.899Z,735.50
2023-03-20T05:41:00.736Z,738.42
2023-03-20T05:43:29.070Z,737.72
2023-03-20T05:45:56.865Z,744.95
2023-03-20T05:48:23.917Z,738.63
2023-03-20T05:50:50.901Z,751.38
2023-03-20T05:53:17.544Z,733.45
2023-03-20T05:55:44.749Z,739.72
2023-03-20T05:58:11.892Z,735.45
2023-03-20T06:00:39.895Z,739.63
2023-03-20T06:03:09.553Z,760.85
2023-03-20T06:05:36.600Z,746.53
2023-03-20T06:08:04.076Z,743.83
2023-03-20T06:10:31.163Z,743.45
2023-03-20T06:13:00.851Z,750.83
2023-03-20T06:15:30.614Z,756.47
2023-03-20T06:17:57.260Z,743.55
2023-03-20T06:20:24.282Z,745.58
2023-03-20T06:22:51.323Z,743.50
2023-03-20T06:25:18.652Z,750.85
2023-03-20T06:27:47.763Z,749.00
2023-03-20T06:30:16.058Z,746.40
2023-03-20T06:32:43.118Z,746.87
2023-03-20T06:35:10.931Z,765.90
2023-03-20T06:37:37.886Z,768.38
2023-03-20T06:40:05.541Z,775.58
2023-03-20T06:42:32.206Z,776.20
2023-03-20T06:44:58.817Z,770.08
2023-03-20T06:47:25.463Z,769.17
2023-03-20T06:49:52.109Z,771.00
2023-03-20T06:52:22.618Z,770.20
2023-03-20T06:54:51.015Z,769.65
2023-03-20T06:57:18.235Z,774.13
2023-03-20T06:59:45.105Z,772.83
2023-03-20T07:02:11.848Z,770.67
2023-03-20T07:04:38.848Z,781.70
2023-03-20T07:07:05.566Z,771.28
2023-03-20T07:09:33.185Z,770.58
2023-03-20T07:12:00.075Z,770.22
2023-03-20T07:14:26.831Z,771.67
2023-03-20T07:16:53.540Z,780.20
2023-03-20T07:19:20.331Z,781.50
2023-03-20T07:21:47.475Z,773.75
2023-03-20T07:24:14.399Z,769.90
2023-03-20T07:26:41.202Z,778.80
2023-03-20T07:29:08.163Z,783.73
2023-03-20T07:31:35.018Z,789.60
2023-03-20T07:34:01.796Z,790.88
2023-03-20T07:36:28.500Z,783.90
2023-03-20T07:38:55.501Z,782.60
2023-03-20T07:41:22.175Z,792.03
2023-03-20T07:43:48.827Z,797.63
2023-03-20T07:46:15.578Z,793.72
2023-03-20T07:48:42.218Z,797.35
2023-03-20T07:51:08.857Z,803.35
2023-03-20T07:53:35.587Z,809.17
2023-03-20T07:56:02.319Z,806.75
2023-03-20T07:58:28.927Z,814.25
2023-03-20T08:00:58.366Z,814.33
2023-03-20T08:03:25.206Z,821.22
2023-03-20T08:05:51.924Z,827.92
2023-03-20T08:08:18.856Z,827.63
2023-03-20T08:10:45.512Z,828.47
2023-03-20T08:13:12.143Z,834.40
2023-03-20T08:15:39.190Z,830.45
2023-03-20T08:18:06.288Z,838.55
2023-03-20T08:20:33.229Z,846.88
2023-03-20T08:22:59.950Z,846.57
2023-03-20T08:25:26.733Z,843.78
2023-03-20T08:27:53.414Z,854.30
2023-03-20T08:30:20.168Z,862.80
2023-03-20T08:32:46.860Z,873.28
2023-03-20T08:35:29.805Z,888.85
2023-03-20T08:37:58.994Z,883.60
2023-03-20T08:40:25.719Z,889.97
2023-03-20T08:42:52.458Z,884.85
2023-03-20T08:45:19.436Z,888.95
2023-03-20T08:47:49.122Z,894.13
2023-03-20T08:50:16.538Z,896.97
2023-03-20T08:52:44.287Z,893.38
2023-03-20T08:55:15.810Z,905.35
2023-03-20T08:57:43.201Z,920.88
2023-03-20T09:00:13.762Z,915.22
2023-03-20T09:02:40.618Z,926.50
2023-03-20T09:05:07.861Z,935.35
2023-03-20T09:07:34.676Z,927.45
2023-03-20T09:10:01.390Z,935.63
2023-03-20T09:12:28.046Z,966.42
2023-03-20T09:14:54.987Z,974.25
2023-03-20T09:17:21.727Z,987.03
2023-03-20T09:19:48.389Z,990.00
2023-03-20T09:22:17.914Z,989.97
2023-03-20T09:24:45.514Z,983.17
2023-03-20T09:27:13.928Z,979.25
2023-03-20T09:29:41.692Z,974.65
2023-03-20T09:32:11.844Z,962.38
2023-03-20T09:34:38.937Z,961.70
2023-03-20T09:37:06.530Z,957.17
2023-03-20T09:39:34.215Z,950.67
2023-03-20T09:42:13.285Z,939.08
2023-03-20T09:44:48.797Z,953.72
2023-03-20T09:47:51.468Z,935.03
2023-03-20T09:50:37.053Z,930.90
2023-03-20T09:53:17.205Z,929.33
2023-03-20T09:55:44.346Z,926.88
2023-03-20T09:58:25.713Z,937.53
2023-03-20T10:00:55.367Z,929.00
2023-03-20T10:03:47.993Z,936.05
2023-03-20T10:06:16.774Z,929.05
2023-03-20T10:08:45.315Z,930.00
2023-03-20T10:11:30.948Z,930.97
2023-03-20T10:14:21.953Z,929.78
2023-03-20T10:17:22.232Z,930.85
2023-03-20T10:19:49.043Z,932.80
2023-03-20T10:22:38.060Z,923.42
2023-03-20T10:25:31.103Z,926.05
2023-03-20T10:27:59.101Z,928.70
2023-03-20T10:30:42.244Z,932.33
2023-03-20T10:33:33.351Z,945.95
2023-03-20T10:36:13.404Z,950.95
2023-03-20T10:38:54.258Z,944.28
2023-03-20T10:41:25.513Z,939.70
2023-03-20T10:43:53.752Z,928.15
2023-03-20T10:46:31.690Z,939.40
2023-03-20T10:49:08.468Z,932.50
2023-03-20T10:51:45.920Z,930.55
2023-03-20T10:54:27.640Z,935.90
2023-03-20T10:56:57.090Z,953.67
2023-03-20T10:59:32.757Z,963.97
2023-03-20T11:01:59.468Z,969.42
2023-03-20T11:04:26.193Z,975.67
2023-03-20T11:07:00.999Z,973.13
2023-03-20T11:09:29.726Z,975.17
2023-03-20T11:12:02.078Z,974.00
2023-03-20T11:14:39.171Z,963.08
2023-03-20T11:17:06.980Z,960.70
2023-03-20T11:19:36.567Z,939.88
2023-03-20T11:22:24.443Z,927.53
2023-03-20T11:25:02.504Z,929.08
2023-03-20T11:27:34.513Z,931.35
2023-03-20T11:30:04.668Z,931.03
2023-03-20T11:32:54.411Z,934.80
2023-03-20T11:35:31.515Z,924.40
2023-03-20T11:38:31.786Z,926.85
2023-03-20T11:40:58.372Z,934.30
2023-03-20T11:43:27.505Z,933.05
2023-03-20T11:45:59.544Z,930.08
2023-03-20T11:48:37.932Z,936.95
2023-03-20T11:51:04.820Z,933.90
2023-03-20T11:53:39.214Z,926.63
2023-03-20T11:56:15.051Z,929.15
2023-03-20T11:59:02.298Z,928.93
2023-03-20T12:01:37.571Z,923.33
2023-03-20T12:04:17.907Z,926.83
2023-03-20T12:06:47.548Z,929.95
2023-03-20T12:09:35.743Z,928.72
2023-03-20T12:12:13.942Z,916.22
2023-03-20T12:14:47.184Z,920.83
2023-03-20T12:17:31.730Z,928.25
2023-03-20T12:20:13.011Z,930.60
2023-03-20T12:23:11.558Z,935.33
2023-03-20T12:25:53.859Z,935.28
2023-03-20T12:28:51.821Z,930.85
2023-03-20T12:31:37.083Z,929.33
2023-03-20T12:34:12.690Z,935.10
2023-03-20T12:36:44.045Z,932.03
2023-03-20T12:39:13.434Z,932.67
2023-03-20T12:41:58.490Z,935.97
2023-03-20T12:44:38.258Z,943.47
2023-03-20T12:47:41.527Z,936.65
2023-03-20T12:50:23.012Z,933.47
2023-03-20T12:53:15.010Z,932.28
2023-03-20T12:55:49.312Z,930.67
2023-03-20T12:58:57.045Z,928.58
2023-03-20T13:01:36.563Z,926.00
2023-03-20T13:04:27.573Z,923.30
2023-03-20T13:06:59.052Z,922.95
2023-03-20T13:09:45.283Z,920.53
2023-03-20T13:12:34.926Z,923.38
2023-03-20T13:15:38.615Z,923.30
2023-03-20T13:18:20.371Z,929.78
2023-03-20T13:20:57.136Z,948.40
2023-03-20T13:23:41.084Z,942.42
2023-03-20T13:26:21.631Z,931.63
2023-03-20T13:29:10.884Z,928.85
2023-03-20T13:31:37.512Z,929.88
2023-03-20T13:34:41.515Z,927.80
2023-03-20T13:37:29.145Z,936.83
2023-03-20T13:40:19.138Z,925.53
2023-03-20T13:42:59.247Z,927.15
2023-03-20T13:45:36.975Z,925.67
2023-03-20T13:48:27.974Z,917.50
2023-03-20T13:51:19.391Z,918.92
2023-03-20T13:54:00.714Z,914.90
2023-03-20T13:56:43.013Z,914.30
2023-03-20T13:59:30.909Z,910.30
2023-03-20T14:02:12.602Z,910.38
2023-03-20T14:04:39.722Z,906.92
2023-03-20T14:07:33.702Z,908.03
2023-03-20T14:10:22.227Z,909.30
2023-03-20T14:13:05.245Z,906.58
2023-03-20T14:15:35.444Z,908.65
2023-03-20T14:18:07.341Z,909.17
2023-03-20T14:20:42.381Z,914.03
2023-03-20T14:23:18.426Z,917.95
2023-03-20T14:25:47.736Z,908.53
2023-03-20T14:28:14.288Z,906.30
2023-03-20T14:30:50.046Z,911.30
2023-03-20T14:33:16.833Z,910.50
2023-03-20T14:35:46.008Z,912.78
2023-03-20T14:38:21.073Z,919.17
2023-03-20T14:40:58.095Z,923.47
2023-03-20T14:43:56.744Z,919.17
2023-03-20T14:46:42.823Z,931.00
2023-03-20T14:49:45.856Z,924.03
2023-03-20T14:52:35.154Z,925.50
2023-03-20T14:55:20.544Z,941.50
2023-03-20T14:57:56.674Z,945.67
2023-03-20T15:00:30.170Z,945.97
2023-03-20T15:03:15.352Z,948.63
2023-03-20T15:05:42.615Z,944.55
2023-03-20T15:08:34.728Z,937.28
2023-03-20T15:11:08.701Z,934.03
2023-03-20T15:13:36.404Z,932.53
2023-03-20T15:16:12.717Z,929.83
2023-03-20T15:18:43.479Z,924.00
2023-03-20T15:21:19.064Z,919.50
2023-03-20T15:23:47.430Z,918.13
2023-03-20T15:26:15.939Z,926.10
2023-03-20T15:28:44.700Z,925.38
2023-03-20T15:31:27.615Z,923.55
2023-03-20T15:33:55.665Z,925.25
2023-03-20T15:36:26.121Z,918.63
2023-03-20T15:38:53.003Z,911.92
2023-03-20T15:41:28.264Z,915.67
2023-03-20T15:44:10.422Z,906.97
2023-03-20T15:46:37.057Z,907.67
2023-03-20T15:49:05.229Z,908.95
2023-03-20T15:51:34.158Z,905.30
2023-03-20T15:54:07.743Z,899.47
2023-03-20T15:56:35.846Z,903.67
2023-03-20T15:59:02.814Z,905.03
2023-03-20T16:01:32.734Z,898.58
2023-03-20T16:03:59.939Z,897.97
2023-03-20T16:06:27.134Z,900.38
2023-03-20T16:09:07.443Z,903.47
2023-03-20T16:11:43.117Z,905.45
2023-03-20T16:14:15.588Z,915.63
2023-03-20T16:16:43.404Z,917.75
2023-03-20T16:19:12.958Z,928.72
2023-03-20T16:21:43.996Z,928.75
2023-03-20T16:24:18.488Z,930.13
2023-03-20T16:26:48.399Z,922.33
2023-03-20T16:29:16.508Z,927.75
2023-03-20T16:32:05.822Z,924.72
2023-03-20T16:34:37.820Z,917.97
2023-03-20T16:37:21.725Z,918.75
2023-03-20T16:39:48.394Z,914.47
2023-03-20T16:42:25.416Z,917.10
2023-03-20T16:44:56.857Z,918.35
2023-03-20T16:47:33.042Z,914.10
2023-03-20T16:50:10.441Z,911.25
2023-03-20T16:52:40.255Z,912.10
2023-03-20T16:55:14.801Z,902.25
2023-03-20T16:57:42.589Z,905.65
2023-03-20T17:00:30.458Z,905.00
2023-03-20T17:03:11.798Z,905.83
2023-03-20T17:05:53.256Z,901.80
2023-03-20T17:08:29.474Z,897.88
2023-03-20T17:10:59.221Z,888.80
2023-03-20T17:13:26.174Z,889.58
2023-03-20T17:15:52.878Z,887.53
2023-03-20T17:18:19.768Z,870.92
2023-03-20T17:20:46.372Z,856.77
2023-03-20T17:23:19.812Z,857.63
2023-03-20T17:25:47.196Z,849.85
2023-03-20T17:28:23.326Z,848.08
2023-03-20T17:30:51.505Z,836.65
2023-03-20T17:33:20.878Z,839.67
2023-03-20T17:35:47.978Z,838.50
2023-03-20T17:38:21.360Z,842.72
2023-03-20T17:40:49.465Z,828.47
2023-03-20T17:43:17.433Z,832.67
2023-03-20T17:45:45.612Z,823.10
2023-03-20T17:48:15.896Z,829.55
2023-03-20T17:50:44.904Z,822.60
2023-03-20T17:53:17.844Z,814.05
2023-03-20T17:55:44.686Z,811.13
2023-03-20T17:58:18.821Z,809.28
2023-03-20T18:00:45.553Z,813.20
2023-03-20T18:03:12.575Z,808.45
2023-03-20T18:05:39.707Z,802.55
2023-03-20T18:08:12.577Z,807.92
2023-03-20T18:10:39.531Z,802.92
2023-03-20T18:13:06.367Z,805.85
2023-03-20T18:15:33.232Z,811.33
2023-03-20T18:17:59.917Z,803.85
2023-03-20T18:20:32.142Z,812.30
2023-03-20T18:22:58.777Z,812.58
2023-03-20T18:25:26.101Z,803.38
2023-03-20T18:27:54.257Z,814.10
2023-03-20T18:30:25.851Z,819.60
2023-03-20T18:32:52.649Z,818.22
2023-03-20T18:35:19.473Z,825.67
2023-03-20T18:37:46.245Z,830.05
2023-03-20T18:40:27.078Z,830.23
2023-03-20T18:42:55.300Z,826.83
2023-03-20T18:45:22.488Z,821.22
2023-03-20T18:47:49.687Z,834.65
2023-03-20T18:50:25.655Z,832.40
2023-03-20T18:52:54.061Z,817.78
2023-03-20T18:55:21.341Z,825.85
2023-03-20T18:57:47.975Z,833.05
2023-03-20T19:00:24.657Z,819.38
2023-03-20T19:02:55.199Z,830.08
2023-03-20T19:05:23.700Z,832.65
2023-03-20T19:07:50.919Z,825.85
2023-03-20T19:10:23.397Z,825.22
2023-03-20T19:12:50.390Z,821.22
2023-03-20T19:15:17.141Z,826.55
2023-03-20T19:17:43.770Z,831.58
2023-03-20T19:20:34.114Z,825.70
2023-03-20T19:23:02.561Z,833.72
2023-03-20T19:25:29.685Z,828.10
2023-03-20T19:27:56.384Z,821.63
2023-03-20T19:30:32.618Z,833.43
2023-03-20T19:32:59.948Z,823.35
2023-03-20T19:35:54.667Z,825.30
2023-03-20T19:38:17.331Z,827.72
2023-03-20T19:40:53.121Z,818.10
2023-03-20T19:43:23.381Z,825.55
2023-03-20T19:45:55.986Z,820.88
2023-03-20T19:48:27.164Z,824.83
2023-03-20T19:50:55.585Z,827.13
2023-03-20T19:53:24.961Z,832.38
2023-03-20T19:55:53.017Z,823.08
2023-03-20T19:58:19.967Z,826.78
2023-03-20T20:00:58.936Z,826.22
2023-03-20T20:03:27.335Z,820.55
2023-03-20T20:05:54.525Z,832.75
2023-03-20T20:08:41.302Z,825.43
2023-03-20T20:11:11.732Z,827.30
2023-03-20T20:13:51.151Z,828.90
2023-03-20T20:16:25.609Z,831.53
2023-03-20T20:18:52.236Z,817.60
2023-03-20T20:22:09.734Z,824.53
2023-03-20T20:24:05.880Z,833.92
2023-03-20T20:26:38.845Z,820.58
2023-03-20T20:29:07.456Z,825.13
2023-03-20T20:31:34.189Z,826.05
2023-03-20T20:34:48.769Z,819.40
2023-03-20T20:37:40.719Z,832.00
2023-03-20T20:39:34.203Z,829.22
2023-03-20T20:42:01.306Z,824.75
2023-03-20T20:44:28.112Z,820.53
2023-03-20T20:46:55.284Z,821.90
2023-03-20T20:49:22.001Z,822.42
2023-03-20T20:51:49.190Z,823.13
2023-03-20T20:54:16.797Z,819.43
2023-03-20T20:56:43.426Z,821.42
2023-03-20T20:59:10.020Z,812.67
2023-03-20T21:01:36.637Z,817.47
2023-03-20T21:04:03.337Z,811.85
2023-03-20T21:06:58.206Z,822.20
2023-03-20T21:09:16.747Z,820.25
2023-03-20T21:11:43.727Z,829.78
2023-03-20T21:14:10.587Z,816.50
2023-03-20T21:16:37.166Z,819.35
2023-03-20T21:19:03.851Z,823.13
2023-03-20T21:21:30.484Z,824.28
2023-03-20T21:23:57.147Z,814.63
2023-03-20T21:26:24.168Z,814.13
2023-03-20T21:28:51.356Z,821.42
2023-03-20T21:31:29.389Z,814.13
2023-03-20T21:33:57.923Z,816.47
2023-03-20T21:36:24.889Z,822.75
2023-03-20T21:39:07.730Z,813.55
2023-03-20T21:41:35.802Z,821.42
2023-03-20T21:44:03.623Z,816.93
2023-03-20T21:47:04.111Z,813.45
2023-03-20T21:52:48.861Z,804.43
2023-03-20T21:55:30.918Z,813.75
2023-03-20T21:58:21.294Z,811.05
2023-03-20T22:03:22.380Z,809.55
2023-03-20T22:06:37.294Z,804.85
2023-03-20T22:12:23.113Z,800.20
2023-03-20T22:15:03.822Z,804.08
2023-03-20T22:20:41.997Z,804.73
2023-03-20T22:23:26.334Z,801.25
2023-03-20T22:26:23.956Z,806.67
2023-03-20T22:40:14.409Z,799.38
2023-03-20T22:45:02.054Z,796.07
2023-03-20T22:47:30.188Z,795.63
2023-03-20T22:49:56.794Z,800.40
2023-03-20T22:52:34.723Z,787.08
2023-03-20T22:55:05.347Z,801.60
2023-03-20T22:57:42.277Z,804.13
2023-03-20T23:00:14.303Z,797.63
2023-03-20T23:02:42.173Z,794.67
2023-03-20T23:05:10.121Z,799.73
2023-03-20T23:07:37.624Z,797.33
2023-03-20T23:10:05.796Z,793.80
2023-03-20T23:12:32.967Z,795.50
2023-03-20T23:15:00.437Z,800.50
2023-03-20T23:17:27.069Z,794.65
2023-03-20T23:20:08.701Z,795.88
2023-03-20T23:22:38.205Z,791.63
2023-03-20T23:25:14.455Z,797.17
2023-03-20T23:27:45.158Z,796.95
2023-03-20T23:30:12.657Z,790.92
2023-03-20T23:32:40.460Z,791.10
2023-03-20T23:35:08.362Z,795.80
2023-03-20T23:37:36.122Z,792.78
2023-03-20T23:40:04.596Z,795.30
2023-03-20T23:42:31.654Z,790.08
2023-03-20T23:45:04.403Z,794.70
2023-03-20T23:47:45.471Z,794.85
2023-03-20T23:50:20.550Z,797.08
2023-03-20T23:53:01.346Z,801.97
2023-03-20T23:55:35.482Z,795.88
2023-03-20T23:58:02.681Z,798.78
